Saga, Japan

5:36 AM JST on August 29, 2015 (GMT +0900)
Raizan Golf Club | | Change Station
CLOSE
Current Station
Personal Weather Station
Location: 糸島市, 福岡県
Elevation: 529 ft
Nearby Weather Stations

Elev 529 ft 33.52 °N, 130.26 °E | Updated 5 seconds ago

Partly Cloudy
Partly Cloudy
72.0 °F
Feels Like 72.0 °F
N
1.1
Wind Variable Wind from SSE
Gusts 2.3 mph

Today
High -- | Low -- °F
--% Chance of Precip.
Yesterday
High -- | Low -- °F
Precip. -- in
5:50 AM 6:48 PM
Waxing Gibbous, 99% visible
Pressure 29.80 in
Visibility 6.2 miles
Clouds Few 2500 ft
Dew Point 69 °F
Humidity 89%
Rainfall 0.00 in
Snow Depth Not available.
UV 0.0 out of 12
Pollen Not available.
Air Quality Not available.
Flu Activity Not available.
METAR RJFF 282030Z VRB01KT 9999 FEW025 BKN/// 23/21 Q1009 RMK 1CU025 A2980
Pressure 29.80 in
Visibility 6.2 miles
Clouds Few 2500 ft
Dew Point 69 °F
Humidity 89%
Rainfall 0.00 in
Snow Depth Not available.
UV 0.0 out of 12
Pollen Not available.
Air Quality Not available.
Flu Activity Not available.
METAR RJFF 282030Z VRB01KT 9999 FEW025 BKN/// 23/21 Q1009 RMK 1CU025 A2980

10-Day Weather Forecast

×

Almanac

Astronomy

Aug. 29, 2015 Rise Set
Actual Time
Civil Twilight
Nautical Twilight
Astronomical Twilight
Moon
Length of Visible Light
Length of Day
Tomorrow will be .
, % of the Moon is Illuminated

Today's Extremes

Country Highs Country Lows

Community

WunderPhotos

Upload Photos

1,850,476 photos uploaded!

WunderBlogs® & News

Nearby

Air Quality

  Air Quality AQ Index Pollutant
Not available.

Snow Depth

Station Depth Elevation

Earthquake Activity

City Distance Mag. Time & Date
Minimum magnitude displayed is 2.5.

Coastal Water Temperatures

Place Temperature

Stations

Nearby Weather Stations

Station Location Temp. Windchill Dew Point Humidity Wind Precip. Elev Updated Type